Courtenay, Canada
Current Conditions -  °F | °C
As of 6:00 AM on Friday 28 Nov 2014 (Local Time) from CYQQ Reporting Station
Few Clouds Few Clouds  
Wind Chill: 32°   Ceiling: Unl
Heat Index: 37°   Visibility: 20mi
Dew Point: 32°   Wind: 7mph
Humidity: 81%   Direction: 300°WNW
Pressure: 29.57"   Gusts: NA
Location:  49.69°N, 124.99°W
Report Text: CYQQ 281400Z 30006KT 20SM FEW060 03/00 A2957 RMK SC2 SLP013
Loading
Personal Weather Stations






























Interactive Weather Map New forecast layout! Learn more

10-Day Weather Forecast

Advertisements
Track Severe Weather on mobile